subida-pico-tapinon.gpx﻿<?xml version="1.0" encoding="UTF-8" standalone="no" ?>
<gpx creator="WTracks"
    xmlns:xsi="http://www.w3.org/2001/XMLSchema-instance" xmlns="http://www.topografix.com/GPX/1/1" version="1.1" xsi:schemaLocation="http://www.topografix.com/GPX/1/1 http://www.topografix.com/GPX/1/1/gpx.xsd">
<metadata>
  <name>2021-05-30 10:46:38</name>
  <desc></desc>
  <author><name>WTracks</name></author>
  <link href='https://opoto.github.io/wtracks/'>
    <text>WTracks</text>
    <type>text/html</type>
  </link>
  <time>2021-05-31T10:40:21.342Z</time>
  <bounds minlat="43.03122551899931" minlon="-5.90436950325966" maxlat="43.032076433583605" maxlon="-5.901794582605363"/>
</metadata>
<wpt lat="43.0275538" lon="-5.918748"><ele>1220.65</ele><time>2021-05-30T08:46:48.298Z</time><name>0000240</name></wpt>
<wpt lat="43.0417254" lon="-5.9070231"><ele>2109.62</ele><time>2021-05-30T12:05:38.123Z</time><name>0000241</name><desc>&lt;p&gt;&lt;br /&gt;&lt;h3&gt;Nombre: Segmento: 1&lt;/h3&gt;&lt;br /&gt;Hora Inicio: 10:46 30 may. 2021&lt;br/&gt;Hora Fin: 13:58 30 may. 2021&lt;br/&gt;Distancia recorrida: 5,7km (03:11)&lt;br/&gt;Tiempo en movimiento: 02:47&lt;br/&gt;Velocidad media: 1,77 km/h&lt;br/&gt;Vel. en Mov.: 2,02 km/h&lt;br/&gt;Velocidad Máxima: 5,5 km/h&lt;br/&gt;Altura Mínima: 1216 m&lt;br/&gt;Altura Máxima: 2109 m&lt;br/&gt;Velocidad Ascenso: 303,2 m/h&lt;br/&gt;Velocidad Descenso: 156,3 m/h&lt;br/&gt;Ganancia Altitud: 901 m&lt;br/&gt;Pérdida Altitud: 28 m&lt;br/&gt;Tiempo Ascenso: 02:58&lt;br/&gt;Tiempo Descenso: 00:11&lt;br/&gt;&lt;/p&gt;</desc></wpt>
<trk><name>2021-05-30 10:46:38</name>
  <trkseg>
    <trkpt lat="43.0275538" lon="-5.918748"><ele>1220.65</ele><time>2021-05-30T08:46:50.000Z</time></trkpt>
    <trkpt lat="43.0277338" lon="-5.9187254"><ele>1216.68</ele><time>2021-05-30T08:48:08.000Z</time></trkpt>
    <trkpt lat="43.0279189" lon="-5.9187045"><ele>1217.65</ele><time>2021-05-30T08:48:34.000Z</time></trkpt>
    <trkpt lat="43.0280945" lon="-5.9186281"><ele>1224.56</ele><time>2021-05-30T08:49:01.000Z</time></trkpt>
    <trkpt lat="43.0282642" lon="-5.9185194"><ele>1229.64</ele><time>2021-05-30T08:50:02.000Z</time></trkpt>
    <trkpt lat="43.0283977" lon="-5.9183426"><ele>1229.74</ele><time>2021-05-30T08:50:18.000Z</time></trkpt>
    <trkpt lat="43.0285487" lon="-5.9181713"><ele>1229.65</ele><time>2021-05-30T08:50:36.000Z</time></trkpt>
    <trkpt lat="43.028701" lon="-5.9180286"><ele>1231.59</ele><time>2021-05-30T08:51:00.000Z</time></trkpt>
    <trkpt lat="43.0288625" lon="-5.9178861"><ele>1231.35</ele><time>2021-05-30T08:51:14.000Z</time></trkpt>
    <trkpt lat="43.0289734" lon="-5.9176788"><ele>1234.32</ele><time>2021-05-30T08:51:58.000Z</time></trkpt>
    <trkpt lat="43.0290122" lon="-5.9174244"><ele>1235.65</ele><time>2021-05-30T08:52:19.000Z</time></trkpt>
    <trkpt lat="43.0290282" lon="-5.9171721"><ele>1234.65</ele><time>2021-05-30T08:52:58.000Z</time></trkpt>
    <trkpt lat="43.0291258" lon="-5.9169559"><ele>1238.32</ele><time>2021-05-30T08:53:17.000Z</time></trkpt>
    <trkpt lat="43.0292517" lon="-5.9167772"><ele>1243.65</ele><time>2021-05-30T08:53:42.000Z</time></trkpt>
    <trkpt lat="43.0293726" lon="-5.9165844"><ele>1249.43</ele><time>2021-05-30T08:54:28.000Z</time></trkpt>
    <trkpt lat="43.0294198" lon="-5.9163433"><ele>1250.65</ele><time>2021-05-30T08:54:46.000Z</time></trkpt>
    <trkpt lat="43.0293982" lon="-5.916095"><ele>1253.65</ele><time>2021-05-30T08:55:07.000Z</time></trkpt>
    <trkpt lat="43.0294221" lon="-5.9158381"><ele>1253.65</ele><time>2021-05-30T08:55:26.000Z</time></trkpt>
    <trkpt lat="43.0295183" lon="-5.9156082"><ele>1254.58</ele><time>2021-05-30T08:55:45.000Z</time></trkpt>
    <trkpt lat="43.0296145" lon="-5.9153967"><ele>1257.56</ele><time>2021-05-30T08:56:02.000Z</time></trkpt>
    <trkpt lat="43.029723" lon="-5.9151813"><ele>1261.56</ele><time>2021-05-30T08:56:21.000Z</time></trkpt>
    <trkpt lat="43.0297684" lon="-5.9149399"><ele>1262.65</ele><time>2021-05-30T08:56:43.000Z</time></trkpt>
    <trkpt lat="43.0297698" lon="-5.914686"><ele>1262.62</ele><time>2021-05-30T08:57:00.000Z</time></trkpt>
    <trkpt lat="43.0297441" lon="-5.9144374"><ele>1265.56</ele><time>2021-05-30T08:57:20.000Z</time></trkpt>
    <trkpt lat="43.0297006" lon="-5.9141878"><ele>1271.35</ele><time>2021-05-30T08:57:42.000Z</time></trkpt>
    <trkpt lat="43.0297513" lon="-5.9139461"><ele>1273.64</ele><time>2021-05-30T08:58:02.000Z</time></trkpt>
    <trkpt lat="43.0298947" lon="-5.9137937"><ele>1274.65</ele><time>2021-05-30T08:58:18.000Z</time></trkpt>
    <trkpt lat="43.0299084" lon="-5.9135408"><ele>1275.64</ele><time>2021-05-30T08:58:43.000Z</time></trkpt>
    <trkpt lat="43.0298078" lon="-5.9133365"><ele>1275.65</ele><time>2021-05-30T08:59:03.000Z</time></trkpt>
    <trkpt lat="43.029777" lon="-5.9130902"><ele>1276.56</ele><time>2021-05-30T08:59:24.000Z</time></trkpt>
    <trkpt lat="43.0298981" lon="-5.9129061"><ele>1281.62</ele><time>2021-05-30T08:59:53.000Z</time></trkpt>
    <trkpt lat="43.0300148" lon="-5.9127123"><ele>1288.34</ele><time>2021-05-30T09:01:01.000Z</time></trkpt>
    <trkpt lat="43.0300261" lon="-5.912455"><ele>1291.32</ele><time>2021-05-30T09:01:21.000Z</time></trkpt>
    <trkpt lat="43.0299571" lon="-5.9122223"><ele>1295.56</ele><time>2021-05-30T09:01:45.000Z</time></trkpt>
    <trkpt lat="43.0298404" lon="-5.9120218"><ele>1301.62</ele><time>2021-05-30T09:02:08.000Z</time></trkpt>
    <trkpt lat="43.0298073" lon="-5.9117711"><ele>1305.56</ele><time>2021-05-30T09:02:32.000Z</time></trkpt>
    <trkpt lat="43.0298436" lon="-5.9115298"><ele>1305.65</ele><time>2021-05-30T09:02:48.000Z</time></trkpt>
    <trkpt lat="43.029862" lon="-5.9112822"><ele>1307.67</ele><time>2021-05-30T09:03:07.000Z</time></trkpt>
    <trkpt lat="43.0298437" lon="-5.9110267"><ele>1309.65</ele><time>2021-05-30T09:03:35.000Z</time></trkpt>
    <trkpt lat="43.0298156" lon="-5.9107766"><ele>1314.64</ele><time>2021-05-30T09:04:09.000Z</time></trkpt>
    <trkpt lat="43.0298857" lon="-5.9105475"><ele>1313.65</ele><time>2021-05-30T09:04:24.000Z</time></trkpt>
    <trkpt lat="43.0299402" lon="-5.9103062"><ele>1309.68</ele><time>2021-05-30T09:04:43.000Z</time></trkpt>
    <trkpt lat="43.0300233" lon="-5.9100875"><ele>1307.66</ele><time>2021-05-30T09:05:02.000Z</time></trkpt>
    <trkpt lat="43.0300808" lon="-5.9098488"><ele>1307.44</ele><time>2021-05-30T09:05:16.000Z</time></trkpt>
    <trkpt lat="43.0301429" lon="-5.9096093"><ele>1307.71</ele><time>2021-05-30T09:05:33.000Z</time></trkpt>
    <trkpt lat="43.0301873" lon="-5.9093639"><ele>1309.64</ele><time>2021-05-30T09:05:55.000Z</time></trkpt>
    <trkpt lat="43.0301962" lon="-5.9091132"><ele>1314.35</ele><time>2021-05-30T09:06:23.000Z</time></trkpt>
    <trkpt lat="43.0302695" lon="-5.9088868"><ele>1315.65</ele><time>2021-05-30T09:06:45.000Z</time></trkpt>
    <trkpt lat="43.0302521" lon="-5.9086327"><ele>1317.62</ele><time>2021-05-30T09:07:03.000Z</time></trkpt>
    <trkpt lat="43.030234" lon="-5.9083818"><ele>1321.62</ele><time>2021-05-30T09:07:20.000Z</time></trkpt>
    <trkpt lat="43.0301863" lon="-5.9081371"><ele>1325.65</ele><time>2021-05-30T09:07:46.000Z</time></trkpt>
    <trkpt lat="43.0302833" lon="-5.907925"><ele>1329.63</ele><time>2021-05-30T09:08:11.000Z</time></trkpt>
    <trkpt lat="43.0303765" lon="-5.9077123"><ele>1329.56</ele><time>2021-05-30T09:08:29.000Z</time></trkpt>
    <trkpt lat="43.0303918" lon="-5.9074509"><ele>1332.65</ele><time>2021-05-30T09:08:53.000Z</time></trkpt>
    <trkpt lat="43.0303758" lon="-5.9072049"><ele>1333.65</ele><time>2021-05-30T09:09:10.000Z</time></trkpt>
    <trkpt lat="43.0304059" lon="-5.9069606"><ele>1333.74</ele><time>2021-05-30T09:09:25.000Z</time></trkpt>
    <trkpt lat="43.0304327" lon="-5.9067049"><ele>1335.56</ele><time>2021-05-30T09:09:41.000Z</time></trkpt>
    <trkpt lat="43.0304724" lon="-5.9064555"><ele>1339.65</ele><time>2021-05-30T09:10:19.000Z</time></trkpt>
    <trkpt lat="43.0305614" lon="-5.9062257"><ele>1339.65</ele><time>2021-05-30T09:10:35.000Z</time></trkpt>
    <trkpt lat="43.0306254" lon="-5.9059867"><ele>1340.56</ele><time>2021-05-30T09:10:51.000Z</time></trkpt>
    <trkpt lat="43.0306871" lon="-5.9057421"><ele>1341.65</ele><time>2021-05-30T09:11:07.000Z</time></trkpt>
    <trkpt lat="43.030773" lon="-5.9055255"><ele>1344.56</ele><time>2021-05-30T09:11:24.000Z</time></trkpt>
    <trkpt lat="43.030905" lon="-5.905355"><ele>1345.65</ele><time>2021-05-30T09:11:45.000Z</time></trkpt>
    <trkpt lat="43.0310552" lon="-5.9052192"><ele>1346.65</ele><time>2021-05-30T09:12:14.000Z</time></trkpt>
    <trkpt lat="43.0311619" lon="-5.9050115"><ele>1350.65</ele><time>2021-05-30T09:12:32.000Z</time></trkpt>
    <trkpt lat="43.0312708" lon="-5.9048118"><ele>1354.35</ele><time>2021-05-30T09:12:55.000Z</time></trkpt>
    <trkpt lat="43.0313743" lon="-5.9045967"><ele>1354.65</ele><time>2021-05-30T09:13:12.000Z</time></trkpt>
    <trkpt lat="43.0314553" lon="-5.904375"><ele>1357.65</ele><time>2021-05-30T09:13:30.000Z</time></trkpt>
    <trkpt lat="43.0315112" lon="-5.9041365"><ele>1363.56</ele><time>2021-05-30T09:13:55.000Z</time></trkpt>
    <trkpt lat="43.031585" lon="-5.9039036"><ele>1368.62</ele><time>2021-05-30T09:14:18.000Z</time></trkpt>
    <trkpt lat="43.031698" lon="-5.9037063"><ele>1372.35</ele><time>2021-05-30T09:14:43.000Z</time></trkpt>
    <trkpt lat="43.0318122" lon="-5.9035122"><ele>1378.95</ele><time>2021-05-30T09:16:52.000Z</time></trkpt>
    <trkpt lat="43.0320111" lon="-5.9034316"><ele>1384.66</ele><time>2021-05-30T09:22:54.000Z</time></trkpt>
    <trkpt lat="43.0321747" lon="-5.9033218"><ele>1387.63</ele><time>2021-05-30T09:23:27.000Z</time></trkpt>
    <trkpt lat="43.0323055" lon="-5.903145"><ele>1391.64</ele><time>2021-05-30T09:24:12.000Z</time></trkpt>
    <trkpt lat="43.0323936" lon="-5.9029213"><ele>1401.95</ele><time>2021-05-30T09:25:10.000Z</time></trkpt>
    <trkpt lat="43.0325056" lon="-5.9027246"><ele>1405.55</ele><time>2021-05-30T09:25:45.000Z</time></trkpt>
    <trkpt lat="43.0326765" lon="-5.9026309"><ele>1409.86</ele><time>2021-05-30T09:26:12.000Z</time></trkpt>
    <trkpt lat="43.032749" lon="-5.902405"><ele>1412.65</ele><time>2021-05-30T09:26:38.000Z</time></trkpt>
    <trkpt lat="43.0328695" lon="-5.902216"><ele>1417.34</ele><time>2021-05-30T09:28:49.000Z</time></trkpt>
    <trkpt lat="43.0327432" lon="-5.9020329"><ele>1425.56</ele><time>2021-05-30T09:29:31.000Z</time></trkpt>
    <trkpt lat="43.0326943" lon="-5.9017776"><ele>1428.65</ele><time>2021-05-30T09:29:57.000Z</time></trkpt>
    <trkpt lat="43.0326759" lon="-5.9015299"><ele>1431.65</ele><time>2021-05-30T09:30:16.000Z</time></trkpt>
    <trkpt lat="43.0326948" lon="-5.9012843"><ele>1436.64</ele><time>2021-05-30T09:30:44.000Z</time></trkpt>
    <trkpt lat="43.0328496" lon="-5.9011425"><ele>1441.65</ele><time>2021-05-30T09:31:22.000Z</time></trkpt>
    <trkpt lat="43.032921" lon="-5.90091"><ele>1447.65</ele><time>2021-05-30T09:32:21.000Z</time></trkpt>
    <trkpt lat="43.0329741" lon="-5.9006665"><ele>1451.65</ele><time>2021-05-30T09:35:35.000Z</time></trkpt>
    <trkpt lat="43.0330096" lon="-5.9004217"><ele>1453.63</ele><time>2021-05-30T09:35:58.000Z</time></trkpt>
    <trkpt lat="43.032976" lon="-5.9001753"><ele>1456.65</ele><time>2021-05-30T09:36:26.000Z</time></trkpt>
    <trkpt lat="43.0330255" lon="-5.8999308"><ele>1461.65</ele><time>2021-05-30T09:37:43.000Z</time></trkpt>
    <trkpt lat="43.0329746" lon="-5.8996947"><ele>1460.65</ele><time>2021-05-30T09:39:04.000Z</time></trkpt>
    <trkpt lat="43.0328415" lon="-5.8995255"><ele>1457.66</ele><time>2021-05-30T09:39:38.000Z</time></trkpt>
    <trkpt lat="43.0327345" lon="-5.8993241"><ele>1461.65</ele><time>2021-05-30T09:40:03.000Z</time></trkpt>
    <trkpt lat="43.0326484" lon="-5.8990988"><ele>1463.66</ele><time>2021-05-30T09:40:24.000Z</time></trkpt>
    <trkpt lat="43.0326797" lon="-5.8988429"><ele>1464.66</ele><time>2021-05-30T09:41:15.000Z</time></trkpt>
    <trkpt lat="43.0326329" lon="-5.8985937"><ele>1468.56</ele><time>2021-05-30T09:41:34.000Z</time></trkpt>
    <trkpt lat="43.0326545" lon="-5.898341"><ele>1467.36</ele><time>2021-05-30T09:41:52.000Z</time></trkpt>
    <trkpt lat="43.0326143" lon="-5.8980967"><ele>1468.66</ele><time>2021-05-30T09:42:42.000Z</time></trkpt>
    <trkpt lat="43.0325572" lon="-5.8978502"><ele>1472.57</ele><time>2021-05-30T09:43:12.000Z</time></trkpt>
    <trkpt lat="43.0324153" lon="-5.8976815"><ele>1478.66</ele><time>2021-05-30T09:43:45.000Z</time></trkpt>
    <trkpt lat="43.032393" lon="-5.8974361"><ele>1481.84</ele><time>2021-05-30T09:44:15.000Z</time></trkpt>
    <trkpt lat="43.0323253" lon="-5.8972038"><ele>1484.63</ele><time>2021-05-30T09:44:43.000Z</time></trkpt>
    <trkpt lat="43.0323238" lon="-5.896956"><ele>1487.96</ele><time>2021-05-30T09:45:09.000Z</time></trkpt>
    <trkpt lat="43.0323375" lon="-5.8967086"><ele>1492.64</ele><time>2021-05-30T09:45:35.000Z</time></trkpt>
    <trkpt lat="43.0322835" lon="-5.8964731"><ele>1494.88</ele><time>2021-05-30T09:46:04.000Z</time></trkpt>
    <trkpt lat="43.03222" lon="-5.8962413"><ele>1497.58</ele><time>2021-05-30T09:46:35.000Z</time></trkpt>
    <trkpt lat="43.0322011" lon="-5.8959962"><ele>1504.36</ele><time>2021-05-30T09:47:14.000Z</time></trkpt>
    <trkpt lat="43.0321684" lon="-5.8957537"><ele>1508.86</ele><time>2021-05-30T09:47:52.000Z</time></trkpt>
    <trkpt lat="43.0320848" lon="-5.8955351"><ele>1515.63</ele><time>2021-05-30T09:48:25.000Z</time></trkpt>
    <trkpt lat="43.0321009" lon="-5.895285"><ele>1518.66</ele><time>2021-05-30T09:49:36.000Z</time></trkpt>
    <trkpt lat="43.0321601" lon="-5.8950378"><ele>1518.62</ele><time>2021-05-30T09:50:13.000Z</time></trkpt>
    <trkpt lat="43.0322037" lon="-5.8947869"><ele>1523.68</ele><time>2021-05-30T09:50:36.000Z</time></trkpt>
    <trkpt lat="43.0322593" lon="-5.894545"><ele>1526.97</ele><time>2021-05-30T09:51:42.000Z</time></trkpt>
    <trkpt lat="43.0322626" lon="-5.8942951"><ele>1528.63</ele><time>2021-05-30T09:52:21.000Z</time></trkpt>
    <trkpt lat="43.0323841" lon="-5.89409"><ele>1527.69</ele><time>2021-05-30T09:52:52.000Z</time></trkpt>
    <trkpt lat="43.0324579" lon="-5.8938619"><ele>1525.96</ele><time>2021-05-30T09:53:18.000Z</time></trkpt>
    <trkpt lat="43.0325835" lon="-5.8936835"><ele>1523.66</ele><time>2021-05-30T09:53:42.000Z</time></trkpt>
    <trkpt lat="43.0327655" lon="-5.8936733"><ele>1520.64</ele><time>2021-05-30T09:54:41.000Z</time></trkpt>
    <trkpt lat="43.0328067" lon="-5.8934271"><ele>1522.66</ele><time>2021-05-30T09:55:17.000Z</time></trkpt>
    <trkpt lat="43.0329226" lon="-5.8932341"><ele>1519.75</ele><time>2021-05-30T09:55:34.000Z</time></trkpt>
    <trkpt lat="43.0330561" lon="-5.8930606"><ele>1515.75</ele><time>2021-05-30T09:55:56.000Z</time></trkpt>
    <trkpt lat="43.0332237" lon="-5.8929619"><ele>1516.66</ele><time>2021-05-30T09:56:19.000Z</time></trkpt>
    <trkpt lat="43.0333879" lon="-5.8928471"><ele>1515.66</ele><time>2021-05-30T09:57:17.000Z</time></trkpt>
    <trkpt lat="43.0335508" lon="-5.892737"><ele>1513.66</ele><time>2021-05-30T09:57:52.000Z</time></trkpt>
    <trkpt lat="43.0337239" lon="-5.8926512"><ele>1514.9</ele><time>2021-05-30T09:58:54.000Z</time></trkpt>
    <trkpt lat="43.0337335" lon="-5.8923913"><ele>1512.69</ele><time>2021-05-30T09:59:21.000Z</time></trkpt>
    <trkpt lat="43.0338552" lon="-5.8921916"><ele>1513.65</ele><time>2021-05-30T09:59:43.000Z</time></trkpt>
    <trkpt lat="43.0339976" lon="-5.8920236"><ele>1517.63</ele><time>2021-05-30T10:00:06.000Z</time></trkpt>
    <trkpt lat="43.0341006" lon="-5.8918167"><ele>1520.57</ele><time>2021-05-30T10:00:29.000Z</time></trkpt>
    <trkpt lat="43.0342544" lon="-5.8916639"><ele>1522.68</ele><time>2021-05-30T10:00:48.000Z</time></trkpt>
    <trkpt lat="43.0343925" lon="-5.8918253"><ele>1525.59</ele><time>2021-05-30T10:01:14.000Z</time></trkpt>
    <trkpt lat="43.0345299" lon="-5.8919974"><ele>1532.66</ele><time>2021-05-30T10:02:10.000Z</time></trkpt>
    <trkpt lat="43.0346983" lon="-5.8921085"><ele>1532.66</ele><time>2021-05-30T10:02:54.000Z</time></trkpt>
    <trkpt lat="43.0348277" lon="-5.8922927"><ele>1534.66</ele><time>2021-05-30T10:03:21.000Z</time></trkpt>
    <trkpt lat="43.0349511" lon="-5.892484"><ele>1546.32</ele><time>2021-05-30T10:04:26.000Z</time></trkpt>
    <trkpt lat="43.0351291" lon="-5.8924457"><ele>1548.57</ele><time>2021-05-30T10:05:04.000Z</time></trkpt>
    <trkpt lat="43.0352783" lon="-5.8922988"><ele>1549.65</ele><time>2021-05-30T10:05:34.000Z</time></trkpt>
    <trkpt lat="43.0353492" lon="-5.8920674"><ele>1554.63</ele><time>2021-05-30T10:06:09.000Z</time></trkpt>
    <trkpt lat="43.0354422" lon="-5.8918543"><ele>1557.65</ele><time>2021-05-30T10:06:42.000Z</time></trkpt>
    <trkpt lat="43.0355634" lon="-5.8916694"><ele>1559.36</ele><time>2021-05-30T10:07:10.000Z</time></trkpt>
    <trkpt lat="43.0357461" lon="-5.8916301"><ele>1566.36</ele><time>2021-05-30T10:08:01.000Z</time></trkpt>
    <trkpt lat="43.035902" lon="-5.8914983"><ele>1567.65</ele><time>2021-05-30T10:08:26.000Z</time></trkpt>
    <trkpt lat="43.0360568" lon="-5.891349"><ele>1568.74</ele><time>2021-05-30T10:08:45.000Z</time></trkpt>
    <trkpt lat="43.0361905" lon="-5.8911832"><ele>1569.63</ele><time>2021-05-30T10:09:02.000Z</time></trkpt>
    <trkpt lat="43.0363203" lon="-5.8910083"><ele>1571.65</ele><time>2021-05-30T10:09:27.000Z</time></trkpt>
    <trkpt lat="43.0364829" lon="-5.8908922"><ele>1570.68</ele><time>2021-05-30T10:09:43.000Z</time></trkpt>
    <trkpt lat="43.0366604" lon="-5.8907894"><ele>1570.63</ele><time>2021-05-30T10:10:00.000Z</time></trkpt>
    <trkpt lat="43.0368284" lon="-5.8906757"><ele>1571.65</ele><time>2021-05-30T10:10:17.000Z</time></trkpt>
    <trkpt lat="43.0370075" lon="-5.8906302"><ele>1572.65</ele><time>2021-05-30T10:10:33.000Z</time></trkpt>
    <trkpt lat="43.0371734" lon="-5.8905325"><ele>1574.58</ele><time>2021-05-30T10:10:50.000Z</time></trkpt>
    <trkpt lat="43.037357" lon="-5.890535"><ele>1577.65</ele><time>2021-05-30T10:11:07.000Z</time></trkpt>
    <trkpt lat="43.0375391" lon="-5.8904823"><ele>1579.65</ele><time>2021-05-30T10:11:29.000Z</time></trkpt>
    <trkpt lat="43.0376749" lon="-5.8903166"><ele>1579.65</ele><time>2021-05-30T10:11:46.000Z</time></trkpt>
    <trkpt lat="43.0378334" lon="-5.8901922"><ele>1583.56</ele><time>2021-05-30T10:12:07.000Z</time></trkpt>
    <trkpt lat="43.0380077" lon="-5.8901184"><ele>1583.66</ele><time>2021-05-30T10:12:27.000Z</time></trkpt>
    <trkpt lat="43.0381692" lon="-5.8899902"><ele>1585.65</ele><time>2021-05-30T10:12:47.000Z</time></trkpt>
    <trkpt lat="43.0383375" lon="-5.8898796"><ele>1587.88</ele><time>2021-05-30T10:13:06.000Z</time></trkpt>
    <trkpt lat="43.0385189" lon="-5.8898496"><ele>1590.44</ele><time>2021-05-30T10:13:27.000Z</time></trkpt>
    <trkpt lat="43.0387013" lon="-5.8898013"><ele>1592.65</ele><time>2021-05-30T10:13:53.000Z</time></trkpt>
    <trkpt lat="43.038886" lon="-5.8898405"><ele>1593.35</ele><time>2021-05-30T10:14:11.000Z</time></trkpt>
    <trkpt lat="43.0390547" lon="-5.8899281"><ele>1594.65</ele><time>2021-05-30T10:14:29.000Z</time></trkpt>
    <trkpt lat="43.0392358" lon="-5.889985"><ele>1598.58</ele><time>2021-05-30T10:15:01.000Z</time></trkpt>
    <trkpt lat="43.0394125" lon="-5.8900401"><ele>1602.64</ele><time>2021-05-30T10:15:29.000Z</time></trkpt>
    <trkpt lat="43.0395834" lon="-5.8901182"><ele>1608.64</ele><time>2021-05-30T10:16:12.000Z</time></trkpt>
    <trkpt lat="43.0397575" lon="-5.8901966"><ele>1612.64</ele><time>2021-05-30T10:17:19.000Z</time></trkpt>
    <trkpt lat="43.0399428" lon="-5.8902168"><ele>1615.55</ele><time>2021-05-30T10:17:39.000Z</time></trkpt>
    <trkpt lat="43.0401234" lon="-5.8902836"><ele>1617.64</ele><time>2021-05-30T10:18:02.000Z</time></trkpt>
    <trkpt lat="43.0403058" lon="-5.8902917"><ele>1622.37</ele><time>2021-05-30T10:26:18.000Z</time></trkpt>
    <trkpt lat="43.0404834" lon="-5.8903432"><ele>1624.64</ele><time>2021-05-30T10:26:53.000Z</time></trkpt>
    <trkpt lat="43.0405997" lon="-5.8905386"><ele>1638.43</ele><time>2021-05-30T10:28:53.000Z</time></trkpt>
    <trkpt lat="43.0407904" lon="-5.8905536"><ele>1639.64</ele><time>2021-05-30T10:29:14.000Z</time></trkpt>
    <trkpt lat="43.0409694" lon="-5.8905819"><ele>1642.64</ele><time>2021-05-30T10:29:54.000Z</time></trkpt>
    <trkpt lat="43.0411539" lon="-5.890568"><ele>1645.91</ele><time>2021-05-30T10:30:27.000Z</time></trkpt>
    <trkpt lat="43.0413262" lon="-5.8904699"><ele>1648.65</ele><time>2021-05-30T10:30:48.000Z</time></trkpt>
    <trkpt lat="43.0415078" lon="-5.8904908"><ele>1649.56</ele><time>2021-05-30T10:31:04.000Z</time></trkpt>
    <trkpt lat="43.041685" lon="-5.8904045"><ele>1651.36</ele><time>2021-05-30T10:31:25.000Z</time></trkpt>
    <trkpt lat="43.0418566" lon="-5.8903288"><ele>1650.35</ele><time>2021-05-30T10:31:41.000Z</time></trkpt>
    <trkpt lat="43.04196" lon="-5.8905402"><ele>1649.73</ele><time>2021-05-30T10:32:53.000Z</time></trkpt>
    <trkpt lat="43.0419712" lon="-5.8907887"><ele>1648.67</ele><time>2021-05-30T10:33:11.000Z</time></trkpt>
    <trkpt lat="43.0419878" lon="-5.8910474"><ele>1645.94</ele><time>2021-05-30T10:33:30.000Z</time></trkpt>
    <trkpt lat="43.0420266" lon="-5.8912942"><ele>1643.64</ele><time>2021-05-30T10:33:46.000Z</time></trkpt>
    <trkpt lat="43.0420604" lon="-5.8915466"><ele>1641.65</ele><time>2021-05-30T10:34:01.000Z</time></trkpt>
    <trkpt lat="43.0421315" lon="-5.8917922"><ele>1640.92</ele><time>2021-05-30T10:34:17.000Z</time></trkpt>
    <trkpt lat="43.0419874" lon="-5.891951"><ele>1642.64</ele><time>2021-05-30T10:35:27.000Z</time></trkpt>
    <trkpt lat="43.0418627" lon="-5.8921297"><ele>1649.3</ele><time>2021-05-30T10:36:10.000Z</time></trkpt>
    <trkpt lat="43.0417445" lon="-5.892322"><ele>1655.64</ele><time>2021-05-30T10:36:46.000Z</time></trkpt>
    <trkpt lat="43.0416319" lon="-5.8925185"><ele>1660.64</ele><time>2021-05-30T10:37:07.000Z</time></trkpt>
    <trkpt lat="43.0415326" lon="-5.8927358"><ele>1663.94</ele><time>2021-05-30T10:37:29.000Z</time></trkpt>
    <trkpt lat="43.0414089" lon="-5.8929285"><ele>1666.63</ele><time>2021-05-30T10:37:49.000Z</time></trkpt>
    <trkpt lat="43.0412838" lon="-5.8931171"><ele>1669.64</ele><time>2021-05-30T10:38:08.000Z</time></trkpt>
    <trkpt lat="43.041176" lon="-5.8933263"><ele>1672.64</ele><time>2021-05-30T10:38:27.000Z</time></trkpt>
    <trkpt lat="43.0410632" lon="-5.8935184"><ele>1676.72</ele><time>2021-05-30T10:38:56.000Z</time></trkpt>
    <trkpt lat="43.0409526" lon="-5.8937225"><ele>1680.55</ele><time>2021-05-30T10:39:16.000Z</time></trkpt>
    <trkpt lat="43.0408395" lon="-5.8939263"><ele>1683.54</ele><time>2021-05-30T10:39:42.000Z</time></trkpt>
    <trkpt lat="43.040727" lon="-5.8941311"><ele>1684.64</ele><time>2021-05-30T10:40:26.000Z</time></trkpt>
    <trkpt lat="43.0406139" lon="-5.8943346"><ele>1684.64</ele><time>2021-05-30T10:41:10.000Z</time></trkpt>
    <trkpt lat="43.0404995" lon="-5.8945321"><ele>1686.64</ele><time>2021-05-30T10:41:27.000Z</time></trkpt>
    <trkpt lat="43.0403851" lon="-5.8947358"><ele>1688.33</ele><time>2021-05-30T10:42:07.000Z</time></trkpt>
    <trkpt lat="43.0402702" lon="-5.8949399"><ele>1688.64</ele><time>2021-05-30T10:42:40.000Z</time></trkpt>
    <trkpt lat="43.0401566" lon="-5.8951327"><ele>1692.34</ele><time>2021-05-30T10:43:09.000Z</time></trkpt>
    <trkpt lat="43.0400314" lon="-5.895313"><ele>1694.55</ele><time>2021-05-30T10:43:47.000Z</time></trkpt>
    <trkpt lat="43.03993" lon="-5.895518"><ele>1693.64</ele><time>2021-05-30T10:44:25.000Z</time></trkpt>
    <trkpt lat="43.0398331" lon="-5.8957302"><ele>1696.65</ele><time>2021-05-30T10:45:24.000Z</time></trkpt>
    <trkpt lat="43.0397774" lon="-5.8959737"><ele>1696.55</ele><time>2021-05-30T10:45:45.000Z</time></trkpt>
    <trkpt lat="43.0396889" lon="-5.8961904"><ele>1697.41</ele><time>2021-05-30T10:46:00.000Z</time></trkpt>
    <trkpt lat="43.0396528" lon="-5.8964433"><ele>1699.64</ele><time>2021-05-30T10:46:28.000Z</time></trkpt>
    <trkpt lat="43.0396474" lon="-5.8966906"><ele>1702.64</ele><time>2021-05-30T10:47:00.000Z</time></trkpt>
    <trkpt lat="43.0396269" lon="-5.8969389"><ele>1706.27</ele><time>2021-05-30T10:47:31.000Z</time></trkpt>
    <trkpt lat="43.0395525" lon="-5.8971685"><ele>1710.64</ele><time>2021-05-30T10:47:51.000Z</time></trkpt>
    <trkpt lat="43.0394899" lon="-5.8974173"><ele>1713.61</ele><time>2021-05-30T10:48:16.000Z</time></trkpt>
    <trkpt lat="43.0394241" lon="-5.8976571"><ele>1715.64</ele><time>2021-05-30T10:48:41.000Z</time></trkpt>
    <trkpt lat="43.0392902" lon="-5.8978294"><ele>1716.85</ele><time>2021-05-30T10:48:58.000Z</time></trkpt>
    <trkpt lat="43.0391703" lon="-5.8980129"><ele>1716.66</ele><time>2021-05-30T10:49:15.000Z</time></trkpt>
    <trkpt lat="43.0390377" lon="-5.8981999"><ele>1717.33</ele><time>2021-05-30T10:49:33.000Z</time></trkpt>
    <trkpt lat="43.0389211" lon="-5.8983957"><ele>1718.57</ele><time>2021-05-30T10:49:50.000Z</time></trkpt>
    <trkpt lat="43.0387739" lon="-5.898553"><ele>1721.63</ele><time>2021-05-30T10:50:09.000Z</time></trkpt>
    <trkpt lat="43.038638" lon="-5.8987196"><ele>1724.33</ele><time>2021-05-30T10:51:23.000Z</time></trkpt>
    <trkpt lat="43.038522" lon="-5.8989115"><ele>1727.65</ele><time>2021-05-30T10:51:56.000Z</time></trkpt>
    <trkpt lat="43.0385222" lon="-5.8991679"><ele>1732.55</ele><time>2021-05-30T10:53:33.000Z</time></trkpt>
    <trkpt lat="43.0386127" lon="-5.899384"><ele>1739.64</ele><time>2021-05-30T10:54:13.000Z</time></trkpt>
    <trkpt lat="43.0385848" lon="-5.8996326"><ele>1744.61</ele><time>2021-05-30T10:54:55.000Z</time></trkpt>
    <trkpt lat="43.0386253" lon="-5.8998771"><ele>1753.33</ele><time>2021-05-30T10:55:42.000Z</time></trkpt>
    <trkpt lat="43.038602" lon="-5.9001242"><ele>1758.64</ele><time>2021-05-30T10:56:29.000Z</time></trkpt>
    <trkpt lat="43.0385299" lon="-5.9003498"><ele>1762.34</ele><time>2021-05-30T10:56:52.000Z</time></trkpt>
    <trkpt lat="43.0385357" lon="-5.9006038"><ele>1766.55</ele><time>2021-05-30T10:57:25.000Z</time></trkpt>
    <trkpt lat="43.0385469" lon="-5.9008497"><ele>1772.63</ele><time>2021-05-30T10:58:17.000Z</time></trkpt>
    <trkpt lat="43.0385578" lon="-5.9011011"><ele>1779.34</ele><time>2021-05-30T10:59:05.000Z</time></trkpt>
    <trkpt lat="43.0385457" lon="-5.9013505"><ele>1784.61</ele><time>2021-05-30T11:00:05.000Z</time></trkpt>
    <trkpt lat="43.0386973" lon="-5.9014836"><ele>1790.31</ele><time>2021-05-30T11:00:48.000Z</time></trkpt>
    <trkpt lat="43.0388724" lon="-5.9015731"><ele>1799.64</ele><time>2021-05-30T11:02:01.000Z</time></trkpt>
    <trkpt lat="43.038966" lon="-5.9017859"><ele>1809.33</ele><time>2021-05-30T11:03:22.000Z</time></trkpt>
    <trkpt lat="43.0391462" lon="-5.9017937"><ele>1820.54</ele><time>2021-05-30T11:06:55.000Z</time></trkpt>
    <trkpt lat="43.0391258" lon="-5.9020458"><ele>1825.91</ele><time>2021-05-30T11:08:02.000Z</time></trkpt>
    <trkpt lat="43.0392928" lon="-5.9021523"><ele>1836.61</ele><time>2021-05-30T11:09:10.000Z</time></trkpt>
    <trkpt lat="43.0394762" lon="-5.9021329"><ele>1843.63</ele><time>2021-05-30T11:10:24.000Z</time></trkpt>
    <trkpt lat="43.0396536" lon="-5.9020843"><ele>1847.62</ele><time>2021-05-30T11:11:33.000Z</time></trkpt>
    <trkpt lat="43.0398342" lon="-5.902026"><ele>1854.63</ele><time>2021-05-30T11:12:18.000Z</time></trkpt>
    <trkpt lat="43.0400149" lon="-5.9020581"><ele>1864.6</ele><time>2021-05-30T11:13:36.000Z</time></trkpt>
    <trkpt lat="43.0399761" lon="-5.902307"><ele>1869.33</ele><time>2021-05-30T11:14:27.000Z</time></trkpt>
    <trkpt lat="43.0398641" lon="-5.9025078"><ele>1871.6</ele><time>2021-05-30T11:14:52.000Z</time></trkpt>
    <trkpt lat="43.0397754" lon="-5.9027283"><ele>1871.31</ele><time>2021-05-30T11:15:25.000Z</time></trkpt>
    <trkpt lat="43.0396912" lon="-5.9029461"><ele>1873.63</ele><time>2021-05-30T11:16:18.000Z</time></trkpt>
    <trkpt lat="43.0397454" lon="-5.9031829"><ele>1883.33</ele><time>2021-05-30T11:17:31.000Z</time></trkpt>
    <trkpt lat="43.0399165" lon="-5.9032802"><ele>1893.33</ele><time>2021-05-30T11:19:14.000Z</time></trkpt>
    <trkpt lat="43.0399776" lon="-5.903515"><ele>1902.54</ele><time>2021-05-30T11:20:40.000Z</time></trkpt>
    <trkpt lat="43.0400015" lon="-5.9037592"><ele>1912.6</ele><time>2021-05-30T11:22:17.000Z</time></trkpt>
    <trkpt lat="43.0400065" lon="-5.9040081"><ele>1920.63</ele><time>2021-05-30T11:23:26.000Z</time></trkpt>
    <trkpt lat="43.0400066" lon="-5.9042599"><ele>1929.6</ele><time>2021-05-30T11:24:46.000Z</time></trkpt>
    <trkpt lat="43.0399989" lon="-5.9045081"><ele>1936.6</ele><time>2021-05-30T11:26:06.000Z</time></trkpt>
    <trkpt lat="43.0401636" lon="-5.9046086"><ele>1946.54</ele><time>2021-05-30T11:27:46.000Z</time></trkpt>
    <trkpt lat="43.0403162" lon="-5.9047487"><ele>1961.53</ele><time>2021-05-30T11:29:54.000Z</time></trkpt>
    <trkpt lat="43.0404327" lon="-5.9049392"><ele>1968.63</ele><time>2021-05-30T11:31:43.000Z</time></trkpt>
    <trkpt lat="43.0404769" lon="-5.905187"><ele>1979.63</ele><time>2021-05-30T11:33:27.000Z</time></trkpt>
    <trkpt lat="43.0404196" lon="-5.9054304"><ele>1984.84</ele><time>2021-05-30T11:34:46.000Z</time></trkpt>
    <trkpt lat="43.0403903" lon="-5.9056742"><ele>1993.62</ele><time>2021-05-30T11:36:10.000Z</time></trkpt>
    <trkpt lat="43.0405741" lon="-5.9056752"><ele>2003.32</ele><time>2021-05-30T11:37:40.000Z</time></trkpt>
    <trkpt lat="43.0407541" lon="-5.9056364"><ele>2009.62</ele><time>2021-05-30T11:38:47.000Z</time></trkpt>
    <trkpt lat="43.040924" lon="-5.9055541"><ele>2013.62</ele><time>2021-05-30T11:40:18.000Z</time></trkpt>
    <trkpt lat="43.0411028" lon="-5.9055252"><ele>2020.32</ele><time>2021-05-30T11:41:29.000Z</time></trkpt>
    <trkpt lat="43.0411559" lon="-5.9057663"><ele>2028.62</ele><time>2021-05-30T11:43:35.000Z</time></trkpt>
    <trkpt lat="43.0411077" lon="-5.9060129"><ele>2035.62</ele><time>2021-05-30T11:44:38.000Z</time></trkpt>
    <trkpt lat="43.0411868" lon="-5.9062556"><ele>2051.32</ele><time>2021-05-30T11:47:27.000Z</time></trkpt>
    <trkpt lat="43.04126" lon="-5.9064838"><ele>2062.44</ele><time>2021-05-30T11:50:25.000Z</time></trkpt>
    <trkpt lat="43.0412141" lon="-5.9067323"><ele>2070.62</ele><time>2021-05-30T11:52:00.000Z</time></trkpt>
    <trkpt lat="43.0412284" lon="-5.9069837"><ele>2078.62</ele><time>2021-05-30T11:54:16.000Z</time></trkpt>
    <trkpt lat="43.041389" lon="-5.9071081"><ele>2097.31</ele><time>2021-05-30T11:56:22.000Z</time></trkpt>
    <trkpt lat="43.0415496" lon="-5.9069691"><ele>2101.62</ele><time>2021-05-30T11:57:19.000Z</time></trkpt>
    <trkpt lat="43.0417254" lon="-5.9070231"><ele>2109.62</ele><time>2021-05-30T11:58:11.000Z</time></trkpt>
  </trkseg>
</trk></gpx>
